sensor_id;sensor_type;location;lat;lon;timestamp;P1;durP1;ratioP1;P2;durP2;ratioP2
40717;SDS011;26405;51.850;-2.246;2023-08-17T00:00:46;23.53;;;10.20;;
40717;SDS011;26405;51.850;-2.246;2023-08-17T00:03:11;21.97;;;8.97;;
40717;SDS011;26405;51.850;-2.246;2023-08-17T00:05:37;19.23;;;7.00;;
40717;SDS011;26405;51.850;-2.246;2023-08-17T00:08:03;13.13;;;5.30;;
40717;SDS011;26405;51.850;-2.246;2023-08-17T00:10:28;16.57;;;5.70;;
40717;SDS011;26405;51.850;-2.246;2023-08-17T00:12:54;14.47;;;5.23;;
40717;SDS011;26405;51.850;-2.246;2023-08-17T00:15:19;12.90;;;4.97;;
40717;SDS011;26405;51.850;-2.246;2023-08-17T00:17:45;12.23;;;4.63;;
40717;SDS011;26405;51.850;-2.246;2023-08-17T00:20:10;10.80;;;4.13;;
40717;SDS011;26405;51.850;-2.246;2023-08-17T00:22:36;10.90;;;4.80;;
40717;SDS011;26405;51.850;-2.246;2023-08-17T00:25:01;17.80;;;5.33;;
40717;SDS011;26405;51.850;-2.246;2023-08-17T00:27:29;13.48;;;4.88;;
40717;SDS011;26405;51.850;-2.246;2023-08-17T00:29:54;9.37;;;4.37;;
40717;SDS011;26405;51.850;-2.246;2023-08-17T00:32:20;9.27;;;3.70;;
40717;SDS011;26405;51.850;-2.246;2023-08-17T00:34:45;8.00;;;3.63;;
40717;SDS011;26405;51.850;-2.246;2023-08-17T00:37:10;11.73;;;4.23;;
40717;SDS011;26405;51.850;-2.246;2023-08-17T00:39:36;8.93;;;3.30;;
40717;SDS011;26405;51.850;-2.246;2023-08-17T00:42:01;11.87;;;3.90;;
40717;SDS011;26405;51.850;-2.246;2023-08-17T00:44:26;9.83;;;3.37;;
40717;SDS011;26405;51.850;-2.246;2023-08-17T00:46:54;5.97;;;3.25;;
40717;SDS011;26405;51.850;-2.246;2023-08-17T00:49:20;8.67;;;3.40;;
40717;SDS011;26405;51.850;-2.246;2023-08-17T00:51:45;8.33;;;3.20;;
40717;SDS011;26405;51.850;-2.246;2023-08-17T00:54:11;6.53;;;2.50;;
40717;SDS011;26405;51.850;-2.246;2023-08-17T00:56:37;4.83;;;2.40;;
40717;SDS011;26405;51.850;-2.246;2023-08-17T00:59:02;7.47;;;2.70;;
40717;SDS011;26405;51.850;-2.246;2023-08-17T01:01:29;16.03;;;3.23;;
40717;SDS011;26405;51.850;-2.246;2023-08-17T01:03:55;8.88;;;2.88;;
40717;SDS011;26405;51.850;-2.246;2023-08-17T01:06:20;4.47;;;2.73;;
40717;SDS011;26405;51.850;-2.246;2023-08-17T01:08:45;9.40;;;2.90;;
40717;SDS011;26405;51.850;-2.246;2023-08-17T01:11:32;6.83;;;3.07;;
40717;SDS011;26405;51.850;-2.246;2023-08-17T01:16:33;8.80;;;3.65;;
40717;SDS011;26405;51.850;-2.246;2023-08-17T01:18:58;6.47;;;3.15;;
40717;SDS011;26405;51.850;-2.246;2023-08-17T01:21:27;5.20;;;2.72;;
40717;SDS011;26405;51.850;-2.246;2023-08-17T01:23:57;6.43;;;2.97;;
40717;SDS011;26405;51.850;-2.246;2023-08-17T01:26:22;11.18;;;3.33;;
40717;SDS011;26405;51.850;-2.246;2023-08-17T01:28:47;8.00;;;2.87;;
40717;SDS011;26405;51.850;-2.246;2023-08-17T01:31:14;6.37;;;3.07;;
40717;SDS011;26405;51.850;-2.246;2023-08-17T01:33:48;6.90;;;2.78;;
40717;SDS011;26405;51.850;-2.246;2023-08-17T01:38:42;6.18;;;2.92;;
40717;SDS011;26405;51.850;-2.246;2023-08-17T01:41:09;9.50;;;3.17;;
40717;SDS011;26405;51.850;-2.246;2023-08-17T01:43:38;7.57;;;3.20;;
40717;SDS011;26405;51.850;-2.246;2023-08-17T01:46:04;8.10;;;3.10;;
40717;SDS011;26405;51.850;-2.246;2023-08-17T01:48:29;6.37;;;3.00;;
40717;SDS011;26405;51.850;-2.246;2023-08-17T01:50:54;7.40;;;3.13;;
40717;SDS011;26405;51.850;-2.246;2023-08-17T01:53:20;10.13;;;3.47;;
40717;SDS011;26405;51.850;-2.246;2023-08-17T01:55:45;8.40;;;3.07;;
40717;SDS011;26405;51.850;-2.246;2023-08-17T01:58:10;8.30;;;2.97;;
40717;SDS011;26405;51.850;-2.246;2023-08-17T02:00:36;8.27;;;3.27;;
40717;SDS011;26405;51.850;-2.246;2023-08-17T02:03:01;6.60;;;3.00;;
40717;SDS011;26405;51.850;-2.246;2023-08-17T02:05:26;5.83;;;2.80;;
40717;SDS011;26405;51.850;-2.246;2023-08-17T02:07:54;9.52;;;3.05;;
40717;SDS011;26405;51.850;-2.246;2023-08-17T02:10:19;7.37;;;3.27;;
40717;SDS011;26405;51.850;-2.246;2023-08-17T02:12:44;8.20;;;3.50;;
40717;SDS011;26405;51.850;-2.246;2023-08-17T02:15:09;8.60;;;2.93;;
40717;SDS011;26405;51.850;-2.246;2023-08-17T02:17:35;6.80;;;3.47;;
40717;SDS011;26405;51.850;-2.246;2023-08-17T02:20:00;11.97;;;3.07;;
40717;SDS011;26405;51.850;-2.246;2023-08-17T02:22:25;13.90;;;3.90;;
40717;SDS011;26405;51.850;-2.246;2023-08-17T02:24:51;11.00;;;3.27;;
40717;SDS011;26405;51.850;-2.246;2023-08-17T02:27:16;8.73;;;3.47;;
40717;SDS011;26405;51.850;-2.246;2023-08-17T02:29:41;8.93;;;3.93;;
40717;SDS011;26405;51.850;-2.246;2023-08-17T02:32:07;11.30;;;4.30;;
40717;SDS011;26405;51.850;-2.246;2023-08-17T02:34:32;12.63;;;4.23;;
40717;SDS011;26405;51.850;-2.246;2023-08-17T02:36:57;9.90;;;3.80;;
40717;SDS011;26405;51.850;-2.246;2023-08-17T02:39:23;11.53;;;4.23;;
40717;SDS011;26405;51.850;-2.246;2023-08-17T02:41:48;13.93;;;4.50;;
40717;SDS011;26405;51.850;-2.246;2023-08-17T02:44:14;14.25;;;4.18;;
40717;SDS011;26405;51.850;-2.246;2023-08-17T02:46:40;10.87;;;4.07;;
40717;SDS011;26405;51.850;-2.246;2023-08-17T02:49:05;11.27;;;4.37;;
40717;SDS011;26405;51.850;-2.246;2023-08-17T02:51:30;12.27;;;3.97;;
40717;SDS011;26405;51.850;-2.246;2023-08-17T02:53:55;11.83;;;4.17;;
40717;SDS011;26405;51.850;-2.246;2023-08-17T02:56:21;12.33;;;4.27;;
40717;SDS011;26405;51.850;-2.246;2023-08-17T02:58:46;8.63;;;3.90;;
40717;SDS011;26405;51.850;-2.246;2023-08-17T03:01:11;9.83;;;3.83;;
40717;SDS011;26405;51.850;-2.246;2023-08-17T03:03:36;11.03;;;4.60;;
40717;SDS011;26405;51.850;-2.246;2023-08-17T03:06:02;7.97;;;3.40;;
40717;SDS011;26405;51.850;-2.246;2023-08-17T03:08:27;12.80;;;4.10;;
40717;SDS011;26405;51.850;-2.246;2023-08-17T03:10:53;12.37;;;4.30;;
40717;SDS011;26405;51.850;-2.246;2023-08-17T03:13:18;12.27;;;4.23;;
40717;SDS011;26405;51.850;-2.246;2023-08-17T03:15:43;11.23;;;4.30;;
40717;SDS011;26405;51.850;-2.246;2023-08-17T03:18:08;11.97;;;4.73;;
40717;SDS011;26405;51.850;-2.246;2023-08-17T03:20:34;10.67;;;3.90;;
40717;SDS011;26405;51.850;-2.246;2023-08-17T03:22:59;11.97;;;4.43;;
40717;SDS011;26405;51.850;-2.246;2023-08-17T03:25:24;11.60;;;4.23;;
40717;SDS011;26405;51.850;-2.246;2023-08-17T03:27:50;10.03;;;4.07;;
40717;SDS011;26405;51.850;-2.246;2023-08-17T03:30:15;8.93;;;3.97;;
40717;SDS011;26405;51.850;-2.246;2023-08-17T03:32:40;10.43;;;4.00;;
40717;SDS011;26405;51.850;-2.246;2023-08-17T03:35:06;10.40;;;4.13;;
40717;SDS011;26405;51.850;-2.246;2023-08-17T03:37:31;11.33;;;3.87;;
40717;SDS011;26405;51.850;-2.246;2023-08-17T03:39:56;11.90;;;4.27;;
40717;SDS011;26405;51.850;-2.246;2023-08-17T03:42:22;13.30;;;4.00;;
40717;SDS011;26405;51.850;-2.246;2023-08-17T03:44:47;12.40;;;4.10;;
40717;SDS011;26405;51.850;-2.246;2023-08-17T03:47:12;10.60;;;3.77;;
40717;SDS011;26405;51.850;-2.246;2023-08-17T03:49:37;9.80;;;3.80;;
40717;SDS011;26405;51.850;-2.246;2023-08-17T03:52:03;9.13;;;3.37;;
40717;SDS011;26405;51.850;-2.246;2023-08-17T03:54:28;10.00;;;3.40;;
40717;SDS011;26405;51.850;-2.246;2023-08-17T03:56:53;9.50;;;3.70;;
40717;SDS011;26405;51.850;-2.246;2023-08-17T03:59:19;10.37;;;3.63;;
40717;SDS011;26405;51.850;-2.246;2023-08-17T04:01:44;12.07;;;3.80;;
40717;SDS011;26405;51.850;-2.246;2023-08-17T04:04:09;8.47;;;3.57;;
40717;SDS011;26405;51.850;-2.246;2023-08-17T04:06:35;10.27;;;4.00;;
40717;SDS011;26405;51.850;-2.246;2023-08-17T04:09:01;8.50;;;3.83;;
40717;SDS011;26405;51.850;-2.246;2023-08-17T04:11:26;7.83;;;3.80;;
40717;SDS011;26405;51.850;-2.246;2023-08-17T04:13:51;9.33;;;4.00;;
40717;SDS011;26405;51.850;-2.246;2023-08-17T04:16:16;9.17;;;4.07;;
40717;SDS011;26405;51.850;-2.246;2023-08-17T04:18:42;10.83;;;4.20;;
40717;SDS011;26405;51.850;-2.246;2023-08-17T04:21:07;10.10;;;4.10;;
40717;SDS011;26405;51.850;-2.246;2023-08-17T04:23:32;10.93;;;3.60;;
40717;SDS011;26405;51.850;-2.246;2023-08-17T04:25:58;9.80;;;4.10;;
40717;SDS011;26405;51.850;-2.246;2023-08-17T04:28:23;10.53;;;4.57;;
40717;SDS011;26405;51.850;-2.246;2023-08-17T04:30:48;11.97;;;3.60;;
40717;SDS011;26405;51.850;-2.246;2023-08-17T04:33:14;10.43;;;4.03;;
40717;SDS011;26405;51.850;-2.246;2023-08-17T04:35:39;12.27;;;4.00;;
40717;SDS011;26405;51.850;-2.246;2023-08-17T04:38:04;11.73;;;4.63;;
40717;SDS011;26405;51.850;-2.246;2023-08-17T04:40:30;14.70;;;5.23;;
40717;SDS011;26405;51.850;-2.246;2023-08-17T04:42:55;7.97;;;3.63;;
40717;SDS011;26405;51.850;-2.246;2023-08-17T04:45:21;12.13;;;4.43;;
40717;SDS011;26405;51.850;-2.246;2023-08-17T04:47:46;13.60;;;5.07;;
40717;SDS011;26405;51.850;-2.246;2023-08-17T04:50:11;10.30;;;4.27;;
40717;SDS011;26405;51.850;-2.246;2023-08-17T04:52:43;15.13;;;5.10;;
40717;SDS011;26405;51.850;-2.246;2023-08-17T04:55:08;11.07;;;4.50;;
40717;SDS011;26405;51.850;-2.246;2023-08-17T04:57:33;10.23;;;4.10;;
40717;SDS011;26405;51.850;-2.246;2023-08-17T04:59:59;12.10;;;5.30;;
40717;SDS011;26405;51.850;-2.246;2023-08-17T05:02:24;15.63;;;5.73;;
40717;SDS011;26405;51.850;-2.246;2023-08-17T05:04:49;14.37;;;5.50;;
40717;SDS011;26405;51.850;-2.246;2023-08-17T05:07:14;14.37;;;5.00;;
40717;SDS011;26405;51.850;-2.246;2023-08-17T05:09:40;8.10;;;4.17;;
40717;SDS011;26405;51.850;-2.246;2023-08-17T05:12:05;16.20;;;5.57;;
40717;SDS011;26405;51.850;-2.246;2023-08-17T05:14:30;15.50;;;5.47;;
40717;SDS011;26405;51.850;-2.246;2023-08-17T05:16:56;15.70;;;5.90;;
40717;SDS011;26405;51.850;-2.246;2023-08-17T05:19:21;13.43;;;4.83;;
40717;SDS011;26405;51.850;-2.246;2023-08-17T05:21:46;12.67;;;4.63;;
40717;SDS011;26405;51.850;-2.246;2023-08-17T05:24:14;15.80;;;5.20;;
40717;SDS011;26405;51.850;-2.246;2023-08-17T05:26:39;15.20;;;5.20;;
40717;SDS011;26405;51.850;-2.246;2023-08-17T05:29:04;12.50;;;5.03;;
40717;SDS011;26405;51.850;-2.246;2023-08-17T05:31:32;10.02;;;4.45;;
40717;SDS011;26405;51.850;-2.246;2023-08-17T05:33:57;11.77;;;4.83;;
40717;SDS011;26405;51.850;-2.246;2023-08-17T05:36:23;12.53;;;4.60;;
40717;SDS011;26405;51.850;-2.246;2023-08-17T05:38:48;10.83;;;4.77;;
40717;SDS011;26405;51.850;-2.246;2023-08-17T05:41:13;13.63;;;4.47;;
40717;SDS011;26405;51.850;-2.246;2023-08-17T05:43:39;14.93;;;5.00;;
40717;SDS011;26405;51.850;-2.246;2023-08-17T05:46:04;15.50;;;5.17;;
40717;SDS011;26405;51.850;-2.246;2023-08-17T05:48:29;14.17;;;5.17;;
40717;SDS011;26405;51.850;-2.246;2023-08-17T05:50:56;12.13;;;5.37;;
40717;SDS011;26405;51.850;-2.246;2023-08-17T05:53:21;14.00;;;5.25;;
40717;SDS011;26405;51.850;-2.246;2023-08-17T05:55:47;14.13;;;5.03;;
40717;SDS011;26405;51.850;-2.246;2023-08-17T05:58:12;11.47;;;4.93;;
40717;SDS011;26405;51.850;-2.246;2023-08-17T06:00:37;13.33;;;4.90;;
40717;SDS011;26405;51.850;-2.246;2023-08-17T06:03:03;11.83;;;4.80;;
40717;SDS011;26405;51.850;-2.246;2023-08-17T06:05:29;11.60;;;4.70;;
40717;SDS011;26405;51.850;-2.246;2023-08-17T06:07:57;13.77;;;4.80;;
40717;SDS011;26405;51.850;-2.246;2023-08-17T06:10:23;13.77;;;5.32;;
40717;SDS011;26405;51.850;-2.246;2023-08-17T06:12:54;14.98;;;5.25;;
40717;SDS011;26405;51.850;-2.246;2023-08-17T06:15:20;11.68;;;5.03;;
40717;SDS011;26405;51.850;-2.246;2023-08-17T06:17:45;13.17;;;5.00;;
40717;SDS011;26405;51.850;-2.246;2023-08-17T06:20:11;14.10;;;5.13;;
40717;SDS011;26405;51.850;-2.246;2023-08-17T06:22:37;12.80;;;5.13;;
40717;SDS011;26405;51.850;-2.246;2023-08-17T06:25:02;11.10;;;4.67;;
40717;SDS011;26405;51.850;-2.246;2023-08-17T06:27:28;14.30;;;5.27;;
40717;SDS011;26405;51.850;-2.246;2023-08-17T06:29:53;11.20;;;4.87;;
40717;SDS011;26405;51.850;-2.246;2023-08-17T06:32:19;10.27;;;4.90;;
40717;SDS011;26405;51.850;-2.246;2023-08-17T06:34:44;13.80;;;5.10;;
40717;SDS011;26405;51.850;-2.246;2023-08-17T06:37:10;11.23;;;4.87;;
40717;SDS011;26405;51.850;-2.246;2023-08-17T06:39:35;15.70;;;5.37;;
40717;SDS011;26405;51.850;-2.246;2023-08-17T06:42:00;13.83;;;4.67;;
40717;SDS011;26405;51.850;-2.246;2023-08-17T06:44:26;11.23;;;4.47;;
40717;SDS011;26405;51.850;-2.246;2023-08-17T06:46:51;10.07;;;4.63;;
40717;SDS011;26405;51.850;-2.246;2023-08-17T06:49:16;16.13;;;5.30;;
40717;SDS011;26405;51.850;-2.246;2023-08-17T06:51:42;12.97;;;5.10;;
40717;SDS011;26405;51.850;-2.246;2023-08-17T06:54:07;10.23;;;4.50;;
40717;SDS011;26405;51.850;-2.246;2023-08-17T06:56:32;9.90;;;4.53;;
40717;SDS011;26405;51.850;-2.246;2023-08-17T06:58:58;14.37;;;4.93;;
40717;SDS011;26405;51.850;-2.246;2023-08-17T07:01:23;11.60;;;5.27;;
40717;SDS011;26405;51.850;-2.246;2023-08-17T07:03:48;12.90;;;4.90;;
40717;SDS011;26405;51.850;-2.246;2023-08-17T07:06:13;15.87;;;5.40;;
40717;SDS011;26405;51.850;-2.246;2023-08-17T07:08:39;15.20;;;5.53;;
40717;SDS011;26405;51.850;-2.246;2023-08-17T07:11:04;13.77;;;4.93;;
40717;SDS011;26405;51.850;-2.246;2023-08-17T07:15:56;11.20;;;4.63;;
40717;SDS011;26405;51.850;-2.246;2023-08-17T07:18:24;14.37;;;5.10;;
40717;SDS011;26405;51.850;-2.246;2023-08-17T07:20:49;11.77;;;4.63;;
40717;SDS011;26405;51.850;-2.246;2023-08-17T07:23:15;16.00;;;5.10;;
40717;SDS011;26405;51.850;-2.246;2023-08-17T07:25:40;13.93;;;4.60;;
40717;SDS011;26405;51.850;-2.246;2023-08-17T07:28:05;16.87;;;5.10;;
40717;SDS011;26405;51.850;-2.246;2023-08-17T07:30:31;13.97;;;5.10;;
40717;SDS011;26405;51.850;-2.246;2023-08-17T07:32:56;15.40;;;5.07;;
40717;SDS011;26405;51.850;-2.246;2023-08-17T07:35:21;11.13;;;4.13;;
40717;SDS011;26405;51.850;-2.246;2023-08-17T07:37:47;16.67;;;5.47;;
40717;SDS011;26405;51.850;-2.246;2023-08-17T07:40:12;18.57;;;4.90;;
40717;SDS011;26405;51.850;-2.246;2023-08-17T07:42:37;12.60;;;4.10;;
40717;SDS011;26405;51.850;-2.246;2023-08-17T07:45:03;15.40;;;5.03;;
40717;SDS011;26405;51.850;-2.246;2023-08-17T07:47:31;13.73;;;4.70;;
40717;SDS011;26405;51.850;-2.246;2023-08-17T07:49:56;14.20;;;4.90;;
40717;SDS011;26405;51.850;-2.246;2023-08-17T07:52:22;12.43;;;4.57;;
40717;SDS011;26405;51.850;-2.246;2023-08-17T07:54:48;13.80;;;4.20;;
40717;SDS011;26405;51.850;-2.246;2023-08-17T07:57:13;11.53;;;4.47;;
40717;SDS011;26405;51.850;-2.246;2023-08-17T07:59:38;11.90;;;4.47;;
40717;SDS011;26405;51.850;-2.246;2023-08-17T08:02:04;13.73;;;5.07;;
40717;SDS011;26405;51.850;-2.246;2023-08-17T08:04:29;13.33;;;4.90;;
40717;SDS011;26405;51.850;-2.246;2023-08-17T08:06:55;12.73;;;4.90;;
40717;SDS011;26405;51.850;-2.246;2023-08-17T08:09:20;16.40;;;4.80;;
40717;SDS011;26405;51.850;-2.246;2023-08-17T08:11:46;12.18;;;4.38;;
40717;SDS011;26405;51.850;-2.246;2023-08-17T08:14:11;14.37;;;4.40;;
40717;SDS011;26405;51.850;-2.246;2023-08-17T08:16:37;13.53;;;4.30;;
40717;SDS011;26405;51.850;-2.246;2023-08-17T08:19:02;13.40;;;4.60;;
40717;SDS011;26405;51.850;-2.246;2023-08-17T08:21:27;12.97;;;4.63;;
40717;SDS011;26405;51.850;-2.246;2023-08-17T08:23:53;15.23;;;4.70;;
40717;SDS011;26405;51.850;-2.246;2023-08-17T08:26:18;10.23;;;4.23;;
40717;SDS011;26405;51.850;-2.246;2023-08-17T08:28:44;11.03;;;4.10;;
40717;SDS011;26405;51.850;-2.246;2023-08-17T08:31:09;9.83;;;4.10;;
40717;SDS011;26405;51.850;-2.246;2023-08-17T08:33:34;11.83;;;4.27;;
40717;SDS011;26405;51.850;-2.246;2023-08-17T08:35:59;14.40;;;4.17;;
40717;SDS011;26405;51.850;-2.246;2023-08-17T08:38:25;11.43;;;3.90;;
40717;SDS011;26405;51.850;-2.246;2023-08-17T08:40:50;10.67;;;4.20;;
40717;SDS011;26405;51.850;-2.246;2023-08-17T08:43:15;11.77;;;4.20;;
40717;SDS011;26405;51.850;-2.246;2023-08-17T08:45:41;12.00;;;4.30;;
40717;SDS011;26405;51.850;-2.246;2023-08-17T08:48:08;12.73;;;4.45;;
40717;SDS011;26405;51.850;-2.246;2023-08-17T08:50:33;13.75;;;4.05;;
40717;SDS011;26405;51.850;-2.246;2023-08-17T08:53:01;11.35;;;4.30;;
40717;SDS011;26405;51.850;-2.246;2023-08-17T08:55:28;10.77;;;4.20;;
40717;SDS011;26405;51.850;-2.246;2023-08-17T08:57:54;12.80;;;4.38;;
40717;SDS011;26405;51.850;-2.246;2023-08-17T09:00:20;11.30;;;4.18;;
40717;SDS011;26405;51.850;-2.246;2023-08-17T09:02:46;12.03;;;4.30;;
40717;SDS011;26405;51.850;-2.246;2023-08-17T09:05:12;10.60;;;3.93;;
40717;SDS011;26405;51.850;-2.246;2023-08-17T09:07:38;10.40;;;3.80;;
40717;SDS011;26405;51.850;-2.246;2023-08-17T09:10:04;10.17;;;4.00;;
40717;SDS011;26405;51.850;-2.246;2023-08-17T09:12:33;11.82;;;3.72;;
40717;SDS011;26405;51.850;-2.246;2023-08-17T09:14:58;7.87;;;3.43;;
40717;SDS011;26405;51.850;-2.246;2023-08-17T09:17:24;11.67;;;3.77;;
40717;SDS011;26405;51.850;-2.246;2023-08-17T09:19:49;11.43;;;3.67;;
40717;SDS011;26405;51.850;-2.246;2023-08-17T09:22:21;11.90;;;3.23;;
40717;SDS011;26405;51.850;-2.246;2023-08-17T09:24:46;13.30;;;3.90;;
40717;SDS011;26405;51.850;-2.246;2023-08-17T09:27:12;12.60;;;3.83;;
40717;SDS011;26405;51.850;-2.246;2023-08-17T09:29:38;9.38;;;3.70;;
40717;SDS011;26405;51.850;-2.246;2023-08-17T09:32:07;12.20;;;3.53;;
40717;SDS011;26405;51.850;-2.246;2023-08-17T09:34:32;12.47;;;3.67;;
40717;SDS011;26405;51.850;-2.246;2023-08-17T09:37:04;8.30;;;3.60;;
40717;SDS011;26405;51.850;-2.246;2023-08-17T09:39:30;14.10;;;3.90;;
40717;SDS011;26405;51.850;-2.246;2023-08-17T09:41:55;9.60;;;3.75;;
40717;SDS011;26405;51.850;-2.246;2023-08-17T09:44:21;11.27;;;3.80;;
40717;SDS011;26405;51.850;-2.246;2023-08-17T09:46:49;10.55;;;3.75;;
40717;SDS011;26405;51.850;-2.246;2023-08-17T09:49:14;10.57;;;3.40;;
40717;SDS011;26405;51.850;-2.246;2023-08-17T09:51:42;9.57;;;3.80;;
40717;SDS011;26405;51.850;-2.246;2023-08-17T09:54:09;11.23;;;3.40;;
40717;SDS011;26405;51.850;-2.246;2023-08-17T09:56:43;10.02;;;3.38;;
40717;SDS011;26405;51.850;-2.246;2023-08-17T09:59:10;11.88;;;3.65;;
40717;SDS011;26405;51.850;-2.246;2023-08-17T10:01:35;9.43;;;3.15;;
40717;SDS011;26405;51.850;-2.246;2023-08-17T10:04:00;11.93;;;3.50;;
40717;SDS011;26405;51.850;-2.246;2023-08-17T10:08:52;10.27;;;3.20;;
40717;SDS011;26405;51.850;-2.246;2023-08-17T10:11:19;8.60;;;3.30;;
40717;SDS011;26405;51.850;-2.246;2023-08-17T10:13:51;8.88;;;2.95;;
40717;SDS011;26405;51.850;-2.246;2023-08-17T10:18:50;10.10;;;3.30;;
40717;SDS011;26405;51.850;-2.246;2023-08-17T10:21:27;8.73;;;3.30;;
40717;SDS011;26405;51.850;-2.246;2023-08-17T10:23:53;8.25;;;3.08;;
40717;SDS011;26405;51.850;-2.246;2023-08-17T10:26:18;9.90;;;3.90;;
40717;SDS011;26405;51.850;-2.246;2023-08-17T10:28:44;10.98;;;3.05;;
40717;SDS011;26405;51.850;-2.246;2023-08-17T10:31:12;11.82;;;3.55;;
40717;SDS011;26405;51.850;-2.246;2023-08-17T10:33:38;7.80;;;3.13;;
40717;SDS011;26405;51.850;-2.246;2023-08-17T10:36:06;9.10;;;3.50;;
40717;SDS011;26405;51.850;-2.246;2023-08-17T10:38:32;12.93;;;3.55;;
40717;SDS011;26405;51.850;-2.246;2023-08-17T10:41:08;8.90;;;3.10;;
40717;SDS011;26405;51.850;-2.246;2023-08-17T10:43:34;10.65;;;3.22;;
40717;SDS011;26405;51.850;-2.246;2023-08-17T10:46:33;8.05;;;2.85;;
40717;SDS011;26405;51.850;-2.246;2023-08-17T10:48:51;7.85;;;2.83;;
40717;SDS011;26405;51.850;-2.246;2023-08-17T10:51:17;10.27;;;3.22;;
40717;SDS011;26405;51.850;-2.246;2023-08-17T10:53:48;12.20;;;3.15;;
40717;SDS011;26405;51.850;-2.246;2023-08-17T10:56:17;8.13;;;3.08;;
40717;SDS011;26405;51.850;-2.246;2023-08-17T10:58:43;6.17;;;2.80;;
40717;SDS011;26405;51.850;-2.246;2023-08-17T11:01:08;9.30;;;2.85;;
40717;SDS011;26405;51.850;-2.246;2023-08-17T11:03:34;7.33;;;2.83;;
40717;SDS011;26405;51.850;-2.246;2023-08-17T11:06:13;11.93;;;3.15;;
40717;SDS011;26405;51.850;-2.246;2023-08-17T11:08:39;6.35;;;2.97;;
40717;SDS011;26405;51.850;-2.246;2023-08-17T11:11:13;8.70;;;2.85;;
40717;SDS011;26405;51.850;-2.246;2023-08-17T11:13:39;9.27;;;3.28;;
40717;SDS011;26405;51.850;-2.246;2023-08-17T11:16:05;8.50;;;2.97;;
40717;SDS011;26405;51.850;-2.246;2023-08-17T11:18:31;8.25;;;3.00;;
40717;SDS011;26405;51.850;-2.246;2023-08-17T11:20:57;10.52;;;2.95;;
40717;SDS011;26405;51.850;-2.246;2023-08-17T11:23:23;7.38;;;3.03;;
40717;SDS011;26405;51.850;-2.246;2023-08-17T11:25:49;8.80;;;2.90;;
40717;SDS011;26405;51.850;-2.246;2023-08-17T11:28:16;7.20;;;3.03;;
40717;SDS011;26405;51.850;-2.246;2023-08-17T11:30:44;8.63;;;2.77;;
40717;SDS011;26405;51.850;-2.246;2023-08-17T11:33:10;8.93;;;3.20;;
40717;SDS011;26405;51.850;-2.246;2023-08-17T11:35:36;9.60;;;3.03;;
40717;SDS011;26405;51.850;-2.246;2023-08-17T11:38:01;5.57;;;2.88;;
40717;SDS011;26405;51.850;-2.246;2023-08-17T11:40:28;6.15;;;2.83;;
40717;SDS011;26405;51.850;-2.246;2023-08-17T11:42:53;11.53;;;3.37;;
40717;SDS011;26405;51.850;-2.246;2023-08-17T11:45:19;10.35;;;3.20;;
40717;SDS011;26405;51.850;-2.246;2023-08-17T11:47:49;7.68;;;2.80;;
40717;SDS011;26405;51.850;-2.246;2023-08-17T11:50:14;9.88;;;3.10;;
40717;SDS011;26405;51.850;-2.246;2023-08-17T11:52:40;8.00;;;3.10;;
40717;SDS011;26405;51.850;-2.246;2023-08-17T11:55:08;8.77;;;3.08;;
40717;SDS011;26405;51.850;-2.246;2023-08-17T11:57:39;9.57;;;3.35;;
40717;SDS011;26405;51.850;-2.246;2023-08-17T12:00:05;8.23;;;3.20;;
40717;SDS011;26405;51.850;-2.246;2023-08-17T12:02:35;5.93;;;2.83;;
40717;SDS011;26405;51.850;-2.246;2023-08-17T12:05:03;6.82;;;2.72;;
40717;SDS011;26405;51.850;-2.246;2023-08-17T12:07:31;6.75;;;3.00;;
40717;SDS011;26405;51.850;-2.246;2023-08-17T12:09:56;7.10;;;3.20;;
40717;SDS011;26405;51.850;-2.246;2023-08-17T12:12:22;10.33;;;3.40;;
40717;SDS011;26405;51.850;-2.246;2023-08-17T12:14:49;7.20;;;3.00;;
40717;SDS011;26405;51.850;-2.246;2023-08-17T12:17:15;11.30;;;3.15;;
40717;SDS011;26405;51.850;-2.246;2023-08-17T12:24:32;5.97;;;2.78;;
40717;SDS011;26405;51.850;-2.246;2023-08-17T12:26:59;9.30;;;2.72;;
40717;SDS011;26405;51.850;-2.246;2023-08-17T12:29:26;5.95;;;2.67;;
40717;SDS011;26405;51.850;-2.246;2023-08-17T12:31:51;5.43;;;2.63;;
40717;SDS011;26405;51.850;-2.246;2023-08-17T12:34:17;6.47;;;2.75;;
40717;SDS011;26405;51.850;-2.246;2023-08-17T12:36:43;8.77;;;2.63;;
40717;SDS011;26405;51.850;-2.246;2023-08-17T12:39:09;6.70;;;2.55;;
40717;SDS011;26405;51.850;-2.246;2023-08-17T12:41:35;7.28;;;2.78;;
40717;SDS011;26405;51.850;-2.246;2023-08-17T12:44:00;8.02;;;2.65;;
40717;SDS011;26405;51.850;-2.246;2023-08-17T12:46:26;7.18;;;3.08;;
40717;SDS011;26405;51.850;-2.246;2023-08-17T12:48:54;5.78;;;2.92;;
40717;SDS011;26405;51.850;-2.246;2023-08-17T12:51:20;9.50;;;2.97;;
40717;SDS011;26405;51.850;-2.246;2023-08-17T12:53:47;5.93;;;2.40;;
40717;SDS011;26405;51.850;-2.246;2023-08-17T12:56:12;6.87;;;2.37;;
40717;SDS011;26405;51.850;-2.246;2023-08-17T12:58:37;8.93;;;3.03;;
40717;SDS011;26405;51.850;-2.246;2023-08-17T13:01:03;5.63;;;2.73;;
40717;SDS011;26405;51.850;-2.246;2023-08-17T13:03:28;6.47;;;2.70;;
40717;SDS011;26405;51.850;-2.246;2023-08-17T13:05:54;6.67;;;2.60;;
40717;SDS011;26405;51.850;-2.246;2023-08-17T13:08:20;7.82;;;2.47;;
40717;SDS011;26405;51.850;-2.246;2023-08-17T13:13:11;6.78;;;2.60;;
40717;SDS011;26405;51.850;-2.246;2023-08-17T13:15:38;6.07;;;2.53;;
40717;SDS011;26405;51.850;-2.246;2023-08-17T13:18:04;7.85;;;2.72;;
40717;SDS011;26405;51.850;-2.246;2023-08-17T13:20:31;6.78;;;2.75;;
40717;SDS011;26405;51.850;-2.246;2023-08-17T13:22:57;5.05;;;2.40;;
40717;SDS011;26405;51.850;-2.246;2023-08-17T13:25:22;8.30;;;2.43;;
40717;SDS011;26405;51.850;-2.246;2023-08-17T13:27:47;7.60;;;3.00;;
40717;SDS011;26405;51.850;-2.246;2023-08-17T13:30:12;8.40;;;2.73;;
40717;SDS011;26405;51.850;-2.246;2023-08-17T13:32:38;5.20;;;2.63;;
40717;SDS011;26405;51.850;-2.246;2023-08-17T13:35:07;5.55;;;2.33;;
40717;SDS011;26405;51.850;-2.246;2023-08-17T13:37:32;6.10;;;2.43;;
40717;SDS011;26405;51.850;-2.246;2023-08-17T13:39:59;7.75;;;2.40;;
40717;SDS011;26405;51.850;-2.246;2023-08-17T13:42:25;7.68;;;2.58;;
40717;SDS011;26405;51.850;-2.246;2023-08-17T13:44:50;6.27;;;2.60;;
40717;SDS011;26405;51.850;-2.246;2023-08-17T13:47:23;11.60;;;2.73;;
40717;SDS011;26405;51.850;-2.246;2023-08-17T13:49:49;7.70;;;2.60;;
40717;SDS011;26405;51.850;-2.246;2023-08-17T13:52:16;5.10;;;2.42;;
40717;SDS011;26405;51.850;-2.246;2023-08-17T13:54:41;5.20;;;2.23;;
40717;SDS011;26405;51.850;-2.246;2023-08-17T13:57:07;7.50;;;2.55;;
40717;SDS011;26405;51.850;-2.246;2023-08-17T13:59:35;6.50;;;2.40;;
40717;SDS011;26405;51.850;-2.246;2023-08-17T14:02:00;5.65;;;2.30;;
40717;SDS011;26405;51.850;-2.246;2023-08-17T14:04:26;7.23;;;2.70;;
40717;SDS011;26405;51.850;-2.246;2023-08-17T14:06:54;6.10;;;2.33;;
40717;SDS011;26405;51.850;-2.246;2023-08-17T14:09:22;3.65;;;2.00;;
40717;SDS011;26405;51.850;-2.246;2023-08-17T14:11:47;9.50;;;2.60;;
40717;SDS011;26405;51.850;-2.246;2023-08-17T14:14:13;4.53;;;2.43;;
40717;SDS011;26405;51.850;-2.246;2023-08-17T14:16:42;9.48;;;2.60;;
40717;SDS011;26405;51.850;-2.246;2023-08-17T14:19:07;3.50;;;2.10;;
40717;SDS011;26405;51.850;-2.246;2023-08-17T14:21:33;8.93;;;2.70;;
40717;SDS011;26405;51.850;-2.246;2023-08-17T14:23:58;7.73;;;2.57;;
40717;SDS011;26405;51.850;-2.246;2023-08-17T14:26:23;6.10;;;2.50;;
40717;SDS011;26405;51.850;-2.246;2023-08-17T14:28:49;10.43;;;2.77;;
40717;SDS011;26405;51.850;-2.246;2023-08-17T14:31:15;5.00;;;2.40;;
40717;SDS011;26405;51.850;-2.246;2023-08-17T14:33:45;4.90;;;2.33;;
40717;SDS011;26405;51.850;-2.246;2023-08-17T14:36:14;5.60;;;2.30;;
40717;SDS011;26405;51.850;-2.246;2023-08-17T14:38:43;5.20;;;2.55;;
40717;SDS011;26405;51.850;-2.246;2023-08-17T14:41:09;7.05;;;2.30;;